Time;durP1;ratioP1;P1;durP2;ratioP2;P2;SDS_P1;SDS_P2;PMS_P1;PMS_P2;Temp;Humidity;BMP_temperature;BMP_pressure;BME280_temperature;BME280_humidity;BME280_pressure;Samples;Min_cycle;Max_cycle;Signal;HPM_P1;HPM_P2
2022/03/12 00:00:42;;;;;;;;;;;9.90;99.90;;;;;;5045177;28;19920;-83
2022/03/12 00:03:08;;;;;;;;;;;9.90;99.90;;;;;;5043403;28;19917;-84
2022/03/12 00:05:35;;;;;;;;;;;9.90;99.90;;;;;;5044472;28;19909;-85
2022/03/12 00:08:03;;;;;;;;;;;9.90;99.90;;;;;;5044203;28;19909;-85
2022/03/12 00:10:32;;;;;;;;;;;9.90;99.90;;;;;;5042753;28;19913;-84
2022/03/12 00:12:58;;;;;;;;;;;9.90;99.90;;;;;;5039436;28;19928;-83
2022/03/12 00:15:24;;;;;;;;;;;9.90;99.90;;;;;;5042681;28;19913;-83
2022/03/12 00:17:50;;;;;;;;;;;9.90;99.90;;;;;;5061897;28;19923;-85
2022/03/12 00:20:18;;;;;;;;;;;9.90;99.90;;;;;;5046448;28;19909;-84
2022/03/12 00:22:47;;;;;;;;;;;9.90;99.90;;;;;;5042599;28;19953;-84
2022/03/12 00:25:13;;;;;;;;;;;9.90;99.90;;;;;;5041931;28;19924;-84
2022/03/12 00:27:40;;;;;;;;;;;9.90;99.90;;;;;;5042499;28;19924;-83
2022/03/12 00:30:06;;;;;;;;;;;9.80;99.90;;;;;;5039861;28;19917;-85
2022/03/12 00:32:35;;;;;;;;;;;9.90;99.90;;;;;;5041262;28;19948;-84
2022/03/12 00:35:01;;;;;;;;;;;9.90;99.90;;;;;;5041615;28;19913;-84
2022/03/12 00:37:26;;;;;;;;;;;9.90;99.90;;;;;;5040733;28;19971;-84
2022/03/12 00:39:52;;;;;;;;;;;9.80;99.90;;;;;;5043054;28;19959;-84
2022/03/12 00:42:18;;;;;;;;;;;9.80;99.90;;;;;;5043783;28;19916;-83
2022/03/12 00:44:43;;;;;;;;;;;9.80;99.90;;;;;;5042995;28;19914;-84
2022/03/12 00:47:09;;;;;;;;;;;9.80;99.90;;;;;;5039077;28;19988;-85
2022/03/12 00:49:34;;;;;;;;;;;9.80;99.90;;;;;;5043712;28;19943;-83
2022/03/12 00:52:00;;;;;;;;;;;9.80;99.90;;;;;;5044222;28;19948;-84
2022/03/12 00:54:25;;;;;;;;;;;9.80;99.90;;;;;;5041014;28;19914;-85
2022/03/12 00:56:51;;;;;;;;;;;9.80;99.90;;;;;;5044240;28;19917;-84
2022/03/12 00:59:16;;;;;;;;;;;9.80;99.90;;;;;;5042700;28;19959;-84
2022/03/12 01:01:42;;;;;;;;;;;9.80;99.90;;;;;;5044095;28;19928;-84
2022/03/12 01:04:07;;;;;;;;;;;9.80;99.90;;;;;;5040382;28;19913;-83
2022/03/12 01:06:37;;;;;;;;;;;9.80;99.90;;;;;;5043547;28;19913;-83
2022/03/12 01:09:03;;;;;;;;;;;9.80;99.90;;;;;;5043118;28;19939;-83
2022/03/12 01:11:29;;;;;;;;;;;9.80;99.90;;;;;;5043920;28;19948;-84
2022/03/12 01:13:54;;;;;;;;;;;9.80;99.90;;;;;;5042949;28;20016;-83
2022/03/12 01:16:21;;;;;;;;;;;9.80;99.90;;;;;;5043527;28;19936;-83
2022/03/12 01:18:46;;;;;;;;;;;9.80;99.90;;;;;;5043239;28;19917;-83
2022/03/12 01:21:18;;;;;;;;;;;9.80;99.90;;;;;;5044935;28;19913;-83
2022/03/12 01:23:44;;;;;;;;;;;9.80;99.90;;;;;;5042746;28;20393;-85
2022/03/12 01:26:10;;;;;;;;;;;9.80;99.90;;;;;;5043167;28;19916;-84
2022/03/12 01:28:36;;;;;;;;;;;9.80;99.90;;;;;;5042412;28;20373;-84
2022/03/12 01:31:03;;;;;;;;;;;9.70;99.90;;;;;;5041965;28;20297;-84
2022/03/12 01:33:29;;;;;;;;;;;9.70;99.90;;;;;;5044023;28;19913;-83
2022/03/12 01:35:54;;;;;;;;;;;9.70;99.90;;;;;;5043815;28;19917;-84
2022/03/12 01:38:26;;;;;;;;;;;9.70;99.90;;;;;;5043123;28;19928;-84
2022/03/12 01:40:52;;;;;;;;;;;9.70;99.90;;;;;;5045839;28;19917;-84
2022/03/12 01:43:17;;;;;;;;;;;9.70;99.90;;;;;;5044036;28;19909;-83
2022/03/12 01:45:43;;;;;;;;;;;9.60;99.90;;;;;;5043760;28;19917;-85
2022/03/12 01:48:08;;;;;;;;;;;9.60;99.90;;;;;;5043665;28;19909;-83
2022/03/12 01:50:35;;;;;;;;;;;9.60;99.90;;;;;;5045064;28;19909;-84
2022/03/12 01:53:07;;;;;;;;;;;9.60;99.90;;;;;;5043924;28;19932;-83
2022/03/12 01:55:32;;;;;;;;;;;9.60;99.90;;;;;;5046600;28;19995;-84
2022/03/12 01:58:01;;;;;;;;;;;9.60;99.90;;;;;;5045873;28;19955;-84
2022/03/12 02:00:28;;;;;;;;;;;9.60;99.90;;;;;;5046627;28;19909;-83
2022/03/12 02:02:54;;;;;;;;;;;9.60;99.90;;;;;;5040723;28;19917;-84
2022/03/12 02:05:25;;;;;;;;;;;9.60;99.90;;;;;;5047409;28;20004;-85
2022/03/12 02:07:50;;;;;;;;;;;9.50;99.90;;;;;;5048570;28;20071;-84
2022/03/12 02:10:21;;;;;;;;;;;9.50;99.90;;;;;;5049135;28;19909;-84
2022/03/12 02:12:46;;;;;;;;;;;9.40;99.90;;;;;;5048319;28;19916;-85
2022/03/12 02:15:12;;;;;;;;;;;9.30;99.90;;;;;;5047916;28;19913;-84
2022/03/12 02:17:38;;;;;;;;;;;9.30;99.90;;;;;;5048210;28;19953;-85
2022/03/12 02:20:04;;;;;;;;;;;9.30;99.90;;;;;;5042992;28;19921;-86
2022/03/12 02:22:30;;;;;;;;;;;9.30;99.90;;;;;;5054762;28;19920;-87
2022/03/12 02:24:55;;;;;;;;;;;9.30;99.90;;;;;;5046707;28;19913;-84
2022/03/12 02:27:26;;;;;;;;;;;9.20;99.90;;;;;;5043422;28;20523;-84
2022/03/12 02:29:58;;;;;;;;;;;9.20;99.90;;;;;;5041775;28;19917;-84
2022/03/12 02:32:23;;;;;;;;;;;9.30;99.90;;;;;;5042630;28;19925;-83
2022/03/12 02:34:50;;;;;;;;;;;9.20;99.90;;;;;;5040507;28;19914;-85
2022/03/12 02:37:26;;;;;;;;;;;9.20;99.90;;;;;;5041483;28;19913;-84
2022/03/12 02:39:51;;;;;;;;;;;9.20;99.90;;;;;;5058192;28;19915;-83
2022/03/12 02:42:19;;;;;;;;;;;9.20;99.90;;;;;;5041660;28;19941;-84
2022/03/12 02:44:45;;;;;;;;;;;9.20;99.90;;;;;;5043328;28;19913;-84
2022/03/12 02:47:15;;;;;;;;;;;9.20;99.90;;;;;;5044112;28;19910;-83
2022/03/12 02:49:52;;;;;;;;;;;9.20;99.90;;;;;;5042941;28;19967;-83
2022/03/12 02:52:18;;;;;;;;;;;9.20;99.90;;;;;;5039069;28;19913;-85
2022/03/12 02:54:44;;;;;;;;;;;9.20;99.90;;;;;;5039137;28;19917;-83
2022/03/12 02:57:10;;;;;;;;;;;9.20;99.90;;;;;;5039822;28;19924;-83
2022/03/12 02:59:36;;;;;;;;;;;9.20;99.90;;;;;;5040698;28;19931;-83
2022/03/12 03:02:06;;;;;;;;;;;9.20;99.90;;;;;;5040419;28;19913;-85
2022/03/12 03:04:34;;;;;;;;;;;9.20;99.90;;;;;;5039547;28;19917;-84
2022/03/12 03:07:00;;;;;;;;;;;9.20;99.90;;;;;;5039093;28;19959;-85
2022/03/12 03:09:26;;;;;;;;;;;9.30;99.90;;;;;;5040263;28;19909;-83
2022/03/12 03:11:52;;;;;;;;;;;9.30;99.90;;;;;;5039727;28;19960;-83
2022/03/12 03:14:19;;;;;;;;;;;9.20;99.90;;;;;;5039604;28;19909;-83
2022/03/12 03:16:45;;;;;;;;;;;9.20;99.90;;;;;;5039936;28;20008;-84
2022/03/12 03:19:11;;;;;;;;;;;9.20;99.90;;;;;;5040161;28;19957;-84
2022/03/12 03:21:37;;;;;;;;;;;9.20;99.90;;;;;;5039310;28;19913;-83
2022/03/12 03:24:05;;;;;;;;;;;9.20;99.90;;;;;;5038981;28;19909;-85
2022/03/12 03:26:33;;;;;;;;;;;9.20;99.90;;;;;;5040637;28;19963;-83
2022/03/12 03:28:59;;;;;;;;;;;9.10;99.90;;;;;;5019852;28;19909;-83
2022/03/12 03:31:24;;;;;;;;;;;9.20;99.90;;;;;;5032403;28;20004;-83
2022/03/12 03:33:50;;;;;;;;;;;9.20;99.90;;;;;;5038142;28;19920;-84
2022/03/12 03:36:15;;;;;;;;;;;9.20;99.90;;;;;;5039483;28;19941;-83
2022/03/12 03:38:41;;;;;;;;;;;9.20;99.90;;;;;;5039035;28;19943;-83
2022/03/12 03:41:06;;;;;;;;;;;9.20;99.90;;;;;;5040745;28;20016;-84
2022/03/12 03:43:32;;;;;;;;;;;9.20;99.90;;;;;;5038798;28;19917;-83
2022/03/12 03:45:58;;;;;;;;;;;9.20;99.90;;;;;;5039500;28;19909;-83
2022/03/12 03:48:24;;;;;;;;;;;9.20;99.90;;;;;;5039363;28;19963;-83
2022/03/12 03:50:50;;;;;;;;;;;9.10;99.90;;;;;;5038028;28;19916;-84
2022/03/12 03:53:17;;;;;;;;;;;9.10;99.90;;;;;;5037827;28;20000;-84
2022/03/12 03:55:43;;;;;;;;;;;9.10;99.90;;;;;;5021240;28;19921;-83
2022/03/12 03:58:11;;;;;;;;;;;9.10;99.90;;;;;;5031641;28;19917;-84
2022/03/12 04:00:36;;;;;;;;;;;9.00;99.90;;;;;;5042981;28;20376;-84
2022/03/12 04:03:02;;;;;;;;;;;9.00;99.90;;;;;;5042973;28;19978;-84
2022/03/12 04:05:32;;;;;;;;;;;9.00;99.90;;;;;;5043075;28;20003;-85
2022/03/12 04:07:59;;;;;;;;;;;9.00;99.90;;;;;;5040966;28;20176;-83
2022/03/12 04:10:25;;;;;;;;;;;9.00;99.90;;;;;;5043478;28;19914;-85
2022/03/12 04:12:51;;;;;;;;;;;9.00;99.90;;;;;;5041171;28;19913;-85
2022/03/12 04:15:17;;;;;;;;;;;8.90;99.90;;;;;;5045150;28;19909;-83
2022/03/12 04:17:43;;;;;;;;;;;8.80;99.90;;;;;;5044169;28;19917;-83
2022/03/12 04:20:09;;;;;;;;;;;8.80;99.90;;;;;;5043462;28;19913;-83
2022/03/12 04:22:37;;;;;;;;;;;8.70;99.90;;;;;;5043451;28;20008;-84
2022/03/12 04:25:02;;;;;;;;;;;8.60;99.90;;;;;;5037383;28;19917;-84
2022/03/12 04:27:28;;;;;;;;;;;8.60;99.90;;;;;;5034792;28;20449;-84
2022/03/12 04:29:53;;;;;;;;;;;8.60;99.90;;;;;;5021654;28;20040;-85
2022/03/12 04:32:19;;;;;;;;;;;8.60;99.90;;;;;;5040915;28;19963;-83
2022/03/12 04:34:45;;;;;;;;;;;8.50;99.90;;;;;;5039489;28;20008;-84
2022/03/12 04:37:11;;;;;;;;;;;8.50;99.90;;;;;;5040344;28;19917;-83
2022/03/12 04:39:36;;;;;;;;;;;8.50;99.90;;;;;;5043879;28;19924;-82
2022/03/12 04:42:03;;;;;;;;;;;8.50;99.90;;;;;;5043985;28;20027;-83
2022/03/12 04:44:28;;;;;;;;;;;8.50;99.90;;;;;;5043047;28;19909;-83
2022/03/12 04:46:54;;;;;;;;;;;8.50;99.90;;;;;;5044159;28;19955;-84
2022/03/12 04:49:19;;;;;;;;;;;8.50;99.90;;;;;;5044113;28;19913;-83
2022/03/12 04:51:45;;;;;;;;;;;8.40;99.90;;;;;;5045465;28;19909;-84
2022/03/12 04:54:10;;;;;;;;;;;8.40;99.90;;;;;;5044804;28;20397;-83
2022/03/12 04:56:36;;;;;;;;;;;8.40;99.90;;;;;;5044585;28;19913;-84
2022/03/12 04:59:01;;;;;;;;;;;8.40;99.90;;;;;;5044409;28;19917;-83
2022/03/12 05:01:28;;;;;;;;;;;8.40;99.90;;;;;;5044543;28;20198;-84
2022/03/12 05:03:53;;;;;;;;;;;8.30;99.90;;;;;;5043190;28;19929;-83
2022/03/12 05:06:19;;;;;;;;;;;8.30;99.90;;;;;;5046535;28;19909;-85
2022/03/12 05:08:45;;;;;;;;;;;8.30;99.90;;;;;;5046346;28;19913;-84
2022/03/12 05:11:10;;;;;;;;;;;8.20;99.90;;;;;;5046072;28;19913;-84
2022/03/12 05:13:36;;;;;;;;;;;8.10;99.90;;;;;;5045478;28;19921;-83
2022/03/12 05:16:03;;;;;;;;;;;8.10;99.90;;;;;;5045509;28;19909;-84
2022/03/12 05:18:30;;;;;;;;;;;8.10;99.90;;;;;;5047024;28;20004;-84
2022/03/12 05:20:55;;;;;;;;;;;8.10;99.90;;;;;;5047064;28;19932;-85
2022/03/12 05:23:21;;;;;;;;;;;8.10;99.90;;;;;;5045798;28;19921;-83
2022/03/12 05:25:48;;;;;;;;;;;8.10;99.90;;;;;;5044292;28;20015;-84
2022/03/12 05:28:15;;;;;;;;;;;8.10;99.90;;;;;;5038124;28;20390;-85
2022/03/12 05:30:43;;;;;;;;;;;8.10;99.90;;;;;;5038993;28;19917;-84
2022/03/12 05:33:09;;;;;;;;;;;8.10;99.90;;;;;;5050135;28;19916;-84
2022/03/12 05:35:39;;;;;;;;;;;8.10;99.90;;;;;;5050958;28;19913;-84
2022/03/12 05:38:05;;;;;;;;;;;8.10;99.90;;;;;;5050964;28;19919;-85
2022/03/12 05:40:31;;;;;;;;;;;8.00;99.90;;;;;;5055339;28;19897;-83
2022/03/12 05:42:56;;;;;;;;;;;8.00;99.90;;;;;;5046944;28;19974;-83
2022/03/12 05:45:23;;;;;;;;;;;8.00;99.90;;;;;;5043242;28;20052;-83
2022/03/12 05:47:49;;;;;;;;;;;8.00;99.90;;;;;;5044092;28;19909;-83
2022/03/12 05:50:16;;;;;;;;;;;8.00;99.90;;;;;;5043346;28;19913;-84
2022/03/12 05:52:46;;;;;;;;;;;8.00;99.90;;;;;;5043321;28;19921;-83
2022/03/12 05:55:12;;;;;;;;;;;8.00;99.90;;;;;;5045821;28;19913;-83
2022/03/12 05:57:37;;;;;;;;;;;8.00;99.90;;;;;;5043330;28;20397;-83
2022/03/12 06:00:04;;;;;;;;;;;8.00;99.90;;;;;;5041687;28;19914;-83
2022/03/12 06:02:30;;;;;;;;;;;8.00;99.90;;;;;;5043152;28;20326;-83
2022/03/12 06:04:59;;;;;;;;;;;8.00;99.90;;;;;;5044271;28;19948;-84
2022/03/12 06:07:27;;;;;;;;;;;8.10;99.90;;;;;;5043663;28;19920;-83
2022/03/12 06:09:56;;;;;;;;;;;8.10;99.90;;;;;;5044055;28;19940;-83
2022/03/12 06:12:25;;;;;;;;;;;8.20;99.90;;;;;;5043799;28;19917;-84
2022/03/12 06:14:52;;;;;;;;;;;8.30;99.90;;;;;;5045301;28;19916;-83
2022/03/12 06:17:19;;;;;;;;;;;8.40;99.90;;;;;;5038899;28;19971;-83
2022/03/12 06:19:45;;;;;;;;;;;8.60;99.90;;;;;;5042003;28;19909;-83
2022/03/12 06:22:11;;;;;;;;;;;8.70;99.90;;;;;;5040180;28;19936;-82
2022/03/12 06:24:37;;;;;;;;;;;8.90;99.90;;;;;;5042308;28;19909;-84
2022/03/12 06:27:03;;;;;;;;;;;9.30;99.90;;;;;;5042226;28;19952;-83
2022/03/12 06:29:28;;;;;;;;;;;9.60;99.90;;;;;;5042061;28;19913;-84
2022/03/12 06:31:54;;;;;;;;;;;10.00;99.90;;;;;;5042058;28;19920;-84
2022/03/12 06:34:19;;;;;;;;;;;11.00;99.90;;;;;;5040028;28;19909;-83
2022/03/12 06:36:45;;;;;;;;;;;12.60;99.90;;;;;;5040860;28;19921;-82
2022/03/12 06:39:11;;;;;;;;;;;12.90;99.90;;;;;;5052822;28;19936;-82
2022/03/12 06:41:38;;;;;;;;;;;13.30;99.90;;;;;;5054715;28;19924;-83
2022/03/12 06:44:05;;;;;;;;;;;14.20;99.90;;;;;;5020762;28;19917;-82
2022/03/12 06:46:31;;;;;;;;;;;14.30;99.90;;;;;;5035294;28;19913;-83
2022/03/12 06:48:57;;;;;;;;;;;14.30;99.90;;;;;;5028385;28;19932;-82
2022/03/12 06:51:24;;;;;;;;;;;14.00;99.90;;;;;;5024158;28;19921;-82
2022/03/12 06:53:49;;;;;;;;;;;13.70;99.90;;;;;;5039419;28;19909;-82
2022/03/12 06:56:15;;;;;;;;;;;13.90;99.90;;;;;;5042169;28;19916;-82
2022/03/12 06:58:40;;;;;;;;;;;14.30;99.90;;;;;;5040024;28;19917;-82
2022/03/12 07:01:06;;;;;;;;;;;14.80;99.90;;;;;;5028164;28;19960;-83
2022/03/12 07:03:31;;;;;;;;;;;14.80;99.90;;;;;;5039774;28;19913;-83
2022/03/12 07:05:57;;;;;;;;;;;14.90;99.90;;;;;;5041846;28;19935;-83
2022/03/12 07:08:23;;;;;;;;;;;15.50;99.90;;;;;;5041865;28;19932;-82
2022/03/12 07:10:49;;;;;;;;;;;15.90;99.90;;;;;;5039566;28;19921;-83
2022/03/12 07:13:16;;;;;;;;;;;15.70;99.90;;;;;;5038672;28;19920;-83
2022/03/12 07:15:42;;;;;;;;;;;15.60;99.90;;;;;;5037356;28;19921;-82
2022/03/12 07:18:07;;;;;;;;;;;15.90;99.90;;;;;;5041169;28;19928;-83
2022/03/12 07:20:33;;;;;;;;;;;16.50;99.90;;;;;;5036723;28;20352;-83
2022/03/12 07:23:00;;;;;;;;;;;16.70;99.90;;;;;;5029536;28;19936;-83
2022/03/12 07:25:27;;;;;;;;;;;16.80;99.90;;;;;;5043187;28;19976;-83
2022/03/12 07:27:54;;;;;;;;;;;17.40;99.90;;;;;;5048492;28;20004;-83
2022/03/12 07:30:21;;;;;;;;;;;18.10;99.90;;;;;;5043991;28;19925;-83
2022/03/12 07:32:47;;;;;;;;;;;19.10;99.90;;;;;;5044361;28;20308;-84
2022/03/12 07:35:13;;;;;;;;;;;20.60;99.90;;;;;;5043636;28;19921;-84
2022/03/12 07:37:39;;;;;;;;;;;22.00;99.90;;;;;;5046203;28;19926;-84
2022/03/12 07:40:05;;;;;;;;;;;23.60;99.90;;;;;;5044940;28;19913;-83
2022/03/12 07:42:30;;;;;;;;;;;24.80;99.90;;;;;;5043821;28;19956;-84
2022/03/12 07:44:56;;;;;;;;;;;25.80;99.90;;;;;;5041087;28;20335;-81
2022/03/12 07:47:21;;;;;;;;;;;26.60;99.90;;;;;;5045348;28;19951;-82
2022/03/12 07:49:47;;;;;;;;;;;27.20;99.90;;;;;;5045176;28;20349;-83
2022/03/12 07:57:14;;;;;;;;;;;26.30;99.90;;;;;;5072246;27;19917;-79
2022/03/12 07:59:39;;;;;;;;;;;26.00;99.90;;;;;;5063970;28;19991;-80
2022/03/12 08:02:06;;;;;;;;;;;25.70;99.90;;;;;;5072501;28;19974;-80
2022/03/12 08:04:33;;;;;;;;;;;25.80;99.90;;;;;;5057636;28;19913;-82
2022/03/12 08:07:02;;;;;;;;;;;25.50;99.90;;;;;;5053783;28;20416;-82
2022/03/12 08:09:31;;;;;;;;;;;25.40;99.90;;;;;;5053902;28;20455;-81
2022/03/12 08:11:57;;;;;;;;;;;25.70;99.90;;;;;;5064187;28;19920;-82
2022/03/12 08:14:23;;;;;;;;;;;26.20;99.90;;;;;;5068771;28;19923;-81
2022/03/12 08:16:51;;;;;;;;;;;26.20;99.90;;;;;;5065165;28;20138;-82
2022/03/12 08:19:17;;;;;;;;;;;26.00;99.90;;;;;;5035789;28;19959;-81
2022/03/12 08:21:43;;;;;;;;;;;26.00;99.90;;;;;;5037420;28;19914;-82
2022/03/12 08:24:10;;;;;;;;;;;26.30;99.90;;;;;;5055043;28;20273;-82
2022/03/12 08:26:36;;;;;;;;;;;26.20;99.90;;;;;;5063585;28;19912;-82
2022/03/12 08:29:02;;;;;;;;;;;26.20;99.90;;;;;;5056349;28;19908;-80
2022/03/12 08:31:27;;;;;;;;;;;26.70;99.90;;;;;;5049250;28;19971;-81
2022/03/12 08:33:53;;;;;;;;;;;26.70;99.90;;;;;;5050201;28;19913;-81
2022/03/12 08:36:18;;;;;;;;;;;26.40;99.90;;;;;;5055007;28;19924;-80
2022/03/12 08:38:44;;;;;;;;;;;26.20;99.90;;;;;;5053812;28;20450;-81
2022/03/12 08:41:11;;;;;;;;;;;26.40;99.90;;;;;;5051711;28;19972;-80
2022/03/12 08:43:40;;;;;;;;;;;27.00;99.90;;;;;;5053776;28;19917;-82
2022/03/12 08:46:07;;;;;;;;;;;27.70;99.90;;;;;;5060761;28;19988;-82
2022/03/12 08:48:33;;;;;;;;;;;28.30;99.90;;;;;;5061696;28;19916;-81
2022/03/12 08:50:59;;;;;;;;;;;28.10;99.90;;;;;;5058707;28;19932;-81
2022/03/12 08:53:24;;;;;;;;;;;28.10;99.90;;;;;;5054565;28;19913;-81
2022/03/12 08:55:50;;;;;;;;;;;28.30;99.90;;;;;;5063861;28;20243;-82
2022/03/12 08:58:15;;;;;;;;;;;27.90;99.90;;;;;;5075056;28;19927;-80
2022/03/12 09:00:42;;;;;;;;;;;26.70;99.90;;;;;;5090584;28;19919;-81
2022/03/12 09:03:09;;;;;;;;;;;25.80;99.90;;;;;;5073381;28;19913;-82
2022/03/12 09:05:34;;;;;;;;;;;25.30;99.90;;;;;;5073484;28;19923;-82
2022/03/12 09:08:00;;;;;;;;;;;25.60;99.90;;;;;;5063443;28;19909;-81
2022/03/12 09:10:26;;;;;;;;;;;25.60;99.90;;;;;;5060128;28;19917;-81
2022/03/12 09:12:51;;;;;;;;;;;24.70;99.90;;;;;;5059085;28;19909;-81
2022/03/12 09:15:20;;;;;;;;;;;24.40;99.90;;;;;;5065343;28;20011;-81
2022/03/12 09:17:46;;;;;;;;;;;23.90;99.90;;;;;;5055133;28;20061;-81
2022/03/12 09:20:12;;;;;;;;;;;23.60;99.90;;;;;;5058057;28;19921;-81
2022/03/12 09:22:38;;;;;;;;;;;23.30;99.90;;;;;;5065840;28;20402;-80
2022/03/12 09:25:04;;;;;;;;;;;23.00;99.90;;;;;;5055729;28;19921;-81
2022/03/12 09:27:30;;;;;;;;;;;23.10;99.90;;;;;;5089153;28;19940;-80
2022/03/12 09:29:55;;;;;;;;;;;23.30;99.90;;;;;;5050384;28;21720;-79
2022/03/12 09:32:20;;;;;;;;;;;23.50;99.90;;;;;;5057826;28;19913;-78
2022/03/12 09:34:46;;;;;;;;;;;24.00;99.90;;;;;;5077113;28;20473;-79
2022/03/12 09:37:11;;;;;;;;;;;24.50;99.90;;;;;;5068809;28;19924;-79
2022/03/12 09:39:37;;;;;;;;;;;25.10;99.90;;;;;;5058159;28;19912;-78
2022/03/12 09:42:03;;;;;;;;;;;25.10;99.90;;;;;;5064799;28;20003;-82
2022/03/12 09:44:28;;;;;;;;;;;26.40;99.90;;;;;;5092683;28;19959;-81
2022/03/12 09:46:55;;;;;;;;;;;27.30;99.90;;;;;;5087426;28;20293;-81
2022/03/12 09:49:21;;;;;;;;;;;28.10;99.90;;;;;;5090593;28;19920;-81
2022/03/12 09:51:46;;;;;;;;;;;29.90;99.90;;;;;;5089638;28;19908;-82
2022/03/12 09:54:12;;;;;;;;;;;30.20;99.90;;;;;;5056661;28;20008;-82
2022/03/12 09:56:38;;;;;;;;;;;30.90;99.90;;;;;;5056755;28;20301;-82
2022/03/12 09:59:05;;;;;;;;;;;30.30;99.90;;;;;;5056947;28;20395;-81
2022/03/12 10:01:31;;;;;;;;;;;28.10;99.90;;;;;;5087057;28;19935;-82
2022/03/12 10:03:56;;;;;;;;;;;27.10;99.90;;;;;;5056662;28;19913;-81
2022/03/12 10:06:22;;;;;;;;;;;25.60;99.90;;;;;;5057938;28;19915;-81
2022/03/12 10:08:47;;;;;;;;;;;25.20;99.90;;;;;;5056953;28;19931;-82
2022/03/12 10:11:13;;;;;;;;;;;25.80;99.90;;;;;;5057251;28;19913;-81
2022/03/12 10:13:39;;;;;;;;;;;26.60;99.90;;;;;;5054649;28;19919;-82
2022/03/12 10:16:04;;;;;;;;;;;27.10;99.90;;;;;;5056556;28;19912;-82
2022/03/12 10:18:30;;;;;;;;;;;27.20;99.90;;;;;;5055326;28;19909;-81
2022/03/12 10:21:00;;;;;;;;;;;27.20;99.90;;;;;;5053473;28;19916;-81
2022/03/12 10:23:25;;;;;;;;;;;27.40;99.90;;;;;;5057595;28;19913;-81
2022/03/12 10:25:51;;;;;;;;;;;26.90;99.90;;;;;;5058268;28;20353;-82
2022/03/12 10:28:17;;;;;;;;;;;26.90;99.90;;;;;;5089731;28;19909;-81
2022/03/12 10:30:42;;;;;;;;;;;26.70;99.90;;;;;;5053026;28;19917;-82
2022/03/12 10:33:08;;;;;;;;;;;26.20;99.90;;;;;;5088622;28;19909;-82
2022/03/12 10:35:35;;;;;;;;;;;25.80;99.90;;;;;;5088665;28;20281;-81
2022/03/12 10:38:01;;;;;;;;;;;25.80;99.90;;;;;;5058907;28;19916;-81
2022/03/12 10:40:27;;;;;;;;;;;25.70;99.90;;;;;;5059135;28;19909;-80
2022/03/12 10:43:00;;;;;;;;;;;25.70;99.90;;;;;;5057988;28;19916;-81
2022/03/12 10:45:27;;;;;;;;;;;25.30;99.90;;;;;;5054629;28;19913;-81
2022/03/12 10:47:56;;;;;;;;;;;24.80;99.90;;;;;;5055848;28;20361;-81
2022/03/12 10:50:25;;;;;;;;;;;24.10;99.90;;;;;;5088775;28;19909;-81
2022/03/12 10:52:52;;;;;;;;;;;23.50;99.90;;;;;;5055332;28;19955;-81
2022/03/12 10:55:23;;;;;;;;;;;23.10;99.90;;;;;;5056536;28;20360;-81
2022/03/12 10:58:07;;;;;;;;;;;22.80;99.90;;;;;;5055294;28;19909;-81
2022/03/12 11:00:40;;;;;;;;;;;22.50;99.90;;;;;;5055238;28;19917;-81
2022/03/12 11:03:14;;;;;;;;;;;22.40;99.90;;;;;;5054019;28;19924;-81
2022/03/12 11:05:42;;;;;;;;;;;22.70;99.90;;;;;;5055368;28;20393;-80
2022/03/12 11:08:18;;;;;;;;;;;22.60;99.90;;;;;;5056701;28;19913;-81
2022/03/12 11:10:58;;;;;;;;;;;22.50;99.90;;;;;;5056279;28;19909;-81
2022/03/12 11:13:45;;;;;;;;;;;22.50;99.90;;;;;;5054264;28;19959;-81
2022/03/12 11:16:14;;;;;;;;;;;22.50;99.90;;;;;;5054592;28;19952;-81
2022/03/12 11:18:47;;;;;;;;;;;22.60;99.90;;;;;;5054715;28;20323;-81
2022/03/12 11:21:14;;;;;;;;;;;22.60;99.90;;;;;;5056505;28;20373;-81
2022/03/12 11:23:42;;;;;;;;;;;22.70;99.90;;;;;;5054196;28;19916;-80
2022/03/12 11:26:07;;;;;;;;;;;23.00;99.90;;;;;;5056099;28;19955;-81
2022/03/12 11:28:35;;;;;;;;;;;23.50;99.90;;;;;;5054653;28;20277;-82
2022/03/12 11:31:06;;;;;;;;;;;24.20;99.90;;;;;;5055776;28;19909;-82
2022/03/12 11:33:31;;;;;;;;;;;24.60;99.90;;;;;;5055944;28;19909;-81
2022/03/12 11:35:58;;;;;;;;;;;24.80;99.90;;;;;;5055841;28;19923;-82
2022/03/12 11:38:24;;;;;;;;;;;24.80;99.90;;;;;;5055841;28;19986;-82
2022/03/12 11:41:01;;;;;;;;;;;25.60;99.90;;;;;;5088008;28;19931;-82
2022/03/12 11:43:30;;;;;;;;;;;25.90;99.90;;;;;;5055119;28;19909;-81
2022/03/12 11:45:59;;;;;;;;;;;25.90;99.90;;;;;;5055749;28;19917;-81
2022/03/12 11:48:25;;;;;;;;;;;25.90;99.90;;;;;;5055739;28;20284;-81
2022/03/12 11:50:51;;;;;;;;;;;25.60;99.90;;;;;;5054164;28;19944;-81
2022/03/12 11:53:17;;;;;;;;;;;25.10;99.90;;;;;;5055000;28;19909;-81
2022/03/12 11:55:46;;;;;;;;;;;24.70;99.90;;;;;;5054710;28;19917;-82
2022/03/12 11:58:11;;;;;;;;;;;24.30;99.90;;;;;;5054119;28;20373;-81
2022/03/12 12:00:37;;;;;;;;;;;23.80;99.90;;;;;;5054013;28;19916;-81
2022/03/12 12:03:02;;;;;;;;;;;23.50;99.90;;;;;;5051887;28;20380;-81
2022/03/12 12:05:29;;;;;;;;;;;23.40;99.90;;;;;;5055027;28;19909;-81
2022/03/12 12:07:55;;;;;;;;;;;23.20;99.90;;;;;;5052235;28;19909;-82
2022/03/12 12:10:29;;;;;;;;;;;23.00;99.90;;;;;;5054604;28;19909;-81
2022/03/12 12:12:54;;;;;;;;;;;23.40;99.90;;;;;;5052974;28;20438;-81
2022/03/12 12:15:26;;;;;;;;;;;23.80;99.90;;;;;;5056625;28;20027;-81
2022/03/12 12:17:52;;;;;;;;;;;24.60;99.90;;;;;;5062224;28;19909;-81
2022/03/12 12:20:20;;;;;;;;;;;25.30;99.90;;;;;;5057326;28;19909;-81
2022/03/12 12:22:46;;;;;;;;;;;26.00;99.90;;;;;;5044884;28;19927;-81
2022/03/12 12:25:12;;;;;;;;;;;26.40;99.90;;;;;;5053667;28;19999;-81
2022/03/12 12:27:43;;;;;;;;;;;26.80;99.90;;;;;;5087184;28;19916;-82
2022/03/12 12:30:28;;;;;;;;;;;26.40;99.90;;;;;;5055277;28;19916;-82
2022/03/12 12:32:53;;;;;;;;;;;26.60;99.90;;;;;;5053276;28;19908;-82
2022/03/12 12:35:19;;;;;;;;;;;27.10;99.90;;;;;;5055229;28;20399;-82
2022/03/12 12:37:49;;;;;;;;;;;27.40;99.90;;;;;;5055144;28;19909;-81
2022/03/12 12:40:35;;;;;;;;;;;27.10;99.90;;;;;;5054950;28;19909;-81
2022/03/12 12:43:03;;;;;;;;;;;27.00;99.90;;;;;;5056579;28;19915;-81
2022/03/12 12:45:31;;;;;;;;;;;26.50;99.90;;;;;;5057602;28;19952;-81
2022/03/12 12:48:09;;;;;;;;;;;26.20;99.90;;;;;;5057790;28;19915;-81
2022/03/12 12:50:34;;;;;;;;;;;25.50;99.90;;;;;;5058723;28;20300;-81
2022/03/12 12:53:11;;;;;;;;;;;25.00;99.90;;;;;;5056140;28;19915;-81
2022/03/12 12:55:37;;;;;;;;;;;24.70;99.90;;;;;;5058544;28;19948;-81
2022/03/12 12:58:03;;;;;;;;;;;24.30;99.90;;;;;;5057142;28;19915;-81
2022/03/12 13:00:30;;;;;;;;;;;24.00;99.90;;;;;;5058371;28;19909;-81
2022/03/12 13:02:57;;;;;;;;;;;24.00;99.90;;;;;;5057518;28;20350;-81
2022/03/12 13:05:41;;;;;;;;;;;23.60;99.90;;;;;;5057970;28;19909;-81
2022/03/12 13:08:07;;;;;;;;;;;22.90;99.90;;;;;;5058514;28;19909;-81
2022/03/12 13:10:32;;;;;;;;;;;22.20;99.90;;;;;;5056749;28;19909;-81
2022/03/12 13:13:09;;;;;;;;;;;21.90;99.90;;;;;;5057198;28;19935;-81
2022/03/12 13:15:38;;;;;;;;;;;21.70;99.90;;;;;;5057914;28;19919;-81
2022/03/12 13:18:19;;;;;;;;;;;21.80;99.90;;;;;;5056507;28;19909;-81
2022/03/12 13:20:45;;;;;;;;;;;22.50;99.90;;;;;;5056673;28;19915;-81
2022/03/12 13:23:11;;;;;;;;;;;23.20;99.90;;;;;;5056861;28;19915;-81
2022/03/12 13:26:06;;;;;;;;;;;23.00;99.90;;;;;;5056210;28;20011;-81
2022/03/12 13:28:41;;;;;;;;;;;23.00;99.90;;;;;;5047885;28;19909;-81
2022/03/12 13:31:19;;;;;;;;;;;22.80;99.90;;;;;;5056080;28;19955;-81
2022/03/12 13:33:46;;;;;;;;;;;22.30;99.90;;;;;;5056036;28;19934;-81
2022/03/12 13:36:19;;;;;;;;;;;22.30;99.90;;;;;;5056591;28;19913;-81
2022/03/12 13:38:45;;;;;;;;;;;22.60;99.90;;;;;;5054428;28;20408;-80
2022/03/12 13:41:15;;;;;;;;;;;22.70;99.90;;;;;;5056602;28;19909;-81
2022/03/12 13:43:41;;;;;;;;;;;23.00;99.90;;;;;;5056211;28;19909;-81
2022/03/12 13:46:06;;;;;;;;;;;22.70;99.90;;;;;;5057593;28;19951;-81
2022/03/12 13:48:32;;;;;;;;;;;22.30;99.90;;;;;;5057548;28;19909;-81
2022/03/12 13:50:57;;;;;;;;;;;22.80;99.90;;;;;;5089631;28;19908;-81
2022/03/12 13:53:27;;;;;;;;;;;22.90;99.90;;;;;;5056924;28;19931;-81
2022/03/12 13:56:00;;;;;;;;;;;22.80;99.90;;;;;;5086184;28;19917;-80
2022/03/12 13:58:29;;;;;;;;;;;22.50;99.90;;;;;;5057951;28;19913;-81
2022/03/12 14:00:57;;;;;;;;;;;21.90;99.90;;;;;;5055799;28;20000;-81
2022/03/12 14:03:22;;;;;;;;;;;21.70;99.90;;;;;;5056487;28;19913;-81
2022/03/12 14:05:48;;;;;;;;;;;21.20;99.90;;;;;;5057488;28;20351;-80
2022/03/12 14:08:22;;;;;;;;;;;21.30;99.90;;;;;;5057196;28;20365;-81
2022/03/12 14:10:52;;;;;;;;;;;21.50;99.90;;;;;;5053546;28;19921;-82
2022/03/12 14:13:20;;;;;;;;;;;21.30;99.90;;;;;;5054906;28;19962;-81
2022/03/12 14:15:46;;;;;;;;;;;21.00;99.90;;;;;;5057108;28;20270;-81
2022/03/12 14:18:18;;;;;;;;;;;20.50;99.90;;;;;;5056917;28;19916;-80
2022/03/12 14:20:43;;;;;;;;;;;20.30;99.90;;;;;;5055827;28;19916;-80
2022/03/12 14:23:09;;;;;;;;;;;20.30;99.90;;;;;;5056521;28;20028;-81
2022/03/12 14:25:35;;;;;;;;;;;20.40;99.90;;;;;;5056852;28;19917;-81
2022/03/12 14:28:03;;;;;;;;;;;20.10;99.90;;;;;;5055207;28;19915;-81